Time;durP1;ratioP1;P1;durP2;ratioP2;P2;SDS_P1;SDS_P2;PMS_P1;PMS_P2;Temp;Humidity;BMP_temperature;BMP_pressure;BME280_temperature;BME280_humidity;BME280_pressure;Samples;Min_cycle;Max_cycle;Signal;HPM_P1;HPM_P2
2023/01/07 00:02:16;;;;;;;4.30;3.90;;;12.20;99.90;;;;;;5051473;28;20178;-52
2023/01/07 00:04:41;;;;;;;4.20;3.80;;;12.20;99.90;;;;;;5051015;28;20654;-52
2023/01/07 00:07:07;;;;;;;4.50;4.10;;;12.70;99.90;;;;;;5051452;28;20182;-52
2023/01/07 00:09:32;;;;;;;4.33;3.90;;;12.40;99.90;;;;;;5051289;28;20202;-51
2023/01/07 00:11:58;;;;;;;4.60;4.20;;;12.20;99.90;;;;;;5051440;28;20176;-52
2023/01/07 00:14:23;;;;;;;4.10;3.70;;;12.20;99.90;;;;;;5050971;28;20213;-54
2023/01/07 00:16:49;;;;;;;3.73;3.43;;;12.20;99.90;;;;;;5051160;28;20214;-51
2023/01/07 00:19:15;;;;;;;24.33;17.93;;;12.20;99.90;;;;;;5051198;28;20229;-51
2023/01/07 00:21:41;;;;;;;5.27;4.77;;;12.20;99.90;;;;;;5051159;28;20167;-52
2023/01/07 00:24:09;;;;;;;8.37;7.50;;;12.20;99.90;;;;;;5050974;28;20175;-51
2023/01/07 00:26:36;;;;;;;8.87;7.27;;;12.20;99.90;;;;;;5050963;28;20662;-53
2023/01/07 00:29:03;;;;;;;5.23;4.73;;;12.20;99.90;;;;;;5051161;28;20215;-51
2023/01/07 00:31:31;;;;;;;4.97;4.47;;;12.30;99.90;;;;;;5051043;28;20537;-53
2023/01/07 00:36:26;;;;;;;5.30;4.70;;;12.30;99.90;;;;;;5051136;28;20289;-48
2023/01/07 00:39:13;;;;;;;5.10;4.50;;;12.30;99.90;;;;;;5051099;28;20226;-51
2023/01/07 00:41:39;;;;;;;5.00;4.50;;;12.40;99.90;;;;;;5050932;28;20671;-55
2023/01/07 00:44:05;;;;;;;5.20;4.70;;;12.40;99.90;;;;;;5050860;28;20179;-51
2023/01/07 00:46:31;;;;;;;5.20;4.70;;;12.50;99.90;;;;;;5051068;28;20175;-53
2023/01/07 00:48:57;;;;;;;5.90;5.27;;;12.50;99.90;;;;;;5051125;28;20261;-51
2023/01/07 00:51:23;;;;;;;12.57;10.47;;;12.40;99.90;;;;;;5049863;28;20186;-51
2023/01/07 00:53:48;;;;;;;11.67;8.93;;;12.30;99.90;;;;;;5050396;28;20652;-51
2023/01/07 00:56:16;;;;;;;9.93;8.57;;;12.20;99.90;;;;;;5050671;28;20172;-55
2023/01/07 00:58:42;;;;;;;5.20;4.70;;;12.30;99.90;;;;;;5050713;28;20159;-52
2023/01/07 01:01:09;;;;;;;5.30;4.80;;;12.30;99.90;;;;;;5050895;28;20171;-51
2023/01/07 01:03:34;;;;;;;6.23;4.50;;;12.40;99.90;;;;;;5050643;28;20187;-52
2023/01/07 01:06:05;;;;;;;4.43;4.03;;;12.40;99.90;;;;;;5050868;28;20172;-51
2023/01/07 01:08:31;;;;;;;4.60;4.20;;;12.50;99.90;;;;;;5051903;28;20261;-56
2023/01/07 01:11:02;;;;;;;5.10;4.60;;;12.60;99.90;;;;;;5054557;28;20223;-51
2023/01/07 01:13:28;;;;;;;5.13;4.63;;;12.60;99.90;;;;;;5054275;28;20206;-49
2023/01/07 01:15:53;;;;;;;5.40;4.67;;;12.60;99.90;;;;;;5054343;28;20171;-53
2023/01/07 01:18:19;;;;;;;5.63;5.03;;;12.50;99.90;;;;;;5054457;28;20174;-52
2023/01/07 01:20:44;;;;;;;5.53;4.50;;;12.60;99.90;;;;;;5054254;28;20191;-52
2023/01/07 01:23:10;;;;;;;5.67;5.17;;;12.60;99.90;;;;;;5054245;28;20171;-52
2023/01/07 01:25:36;;;;;;;4.80;4.30;;;12.60;99.90;;;;;;5053917;28;20195;-51
2023/01/07 01:28:01;;;;;;;4.70;4.20;;;12.60;99.90;;;;;;5054320;28;20175;-52
2023/01/07 01:30:27;;;;;;;5.10;4.53;;;12.60;99.90;;;;;;5054079;28;20273;-52
2023/01/07 01:32:52;;;;;;;5.70;4.90;;;12.50;99.90;;;;;;5054187;28;20198;-53
2023/01/07 01:35:18;;;;;;;5.23;4.73;;;12.50;99.90;;;;;;5053764;28;20174;-51
2023/01/07 01:37:43;;;;;;;5.50;4.90;;;12.50;99.90;;;;;;5054148;28;20163;-52
2023/01/07 01:40:10;;;;;;;7.03;5.30;;;12.80;99.90;;;;;;5053936;28;20206;-53
2023/01/07 01:42:35;;;;;;;5.57;5.07;;;12.60;99.90;;;;;;5054192;28;20179;-53
2023/01/07 01:45:02;;;;;;;5.37;4.87;;;12.50;99.90;;;;;;5053705;28;20529;-53
2023/01/07 01:47:47;;;;;;;5.63;5.10;;;12.50;99.90;;;;;;5053812;28;20167;-51
2023/01/07 01:50:29;;;;;;;5.67;4.97;;;12.50;99.90;;;;;;5053742;28;20268;-52
2023/01/07 01:53:00;;;;;;;5.87;4.90;;;12.50;99.90;;;;;;5053688;28;20670;-52
2023/01/07 01:55:33;;;;;;;5.80;5.07;;;12.50;99.90;;;;;;5053347;28;20628;-53
2023/01/07 01:58:04;;;;;;;5.80;5.20;;;12.50;99.90;;;;;;5053639;28;20254;-52
2023/01/07 02:00:31;;;;;;;5.20;4.70;;;12.50;99.90;;;;;;5053733;28;20591;-54
2023/01/07 02:02:58;;;;;;;6.20;5.53;;;12.50;99.90;;;;;;5053301;28;20171;-51
2023/01/07 02:05:36;;;;;;;5.90;5.27;;;12.50;99.90;;;;;;5053133;28;20225;-54
2023/01/07 02:08:02;;;;;;;6.60;5.00;;;12.50;99.90;;;;;;5053351;28;20182;-51
2023/01/07 02:10:30;;;;;;;5.63;5.00;;;12.50;99.90;;;;;;5053324;28;20298;-52
2023/01/07 02:13:20;;;;;;;6.00;5.40;;;12.50;99.90;;;;;;5053275;28;20190;-51
2023/01/07 02:16:00;;;;;;;5.17;4.67;;;12.40;99.90;;;;;;5053324;28;20597;-51
2023/01/07 02:18:48;;;;;;;5.10;4.60;;;12.40;99.90;;;;;;5053125;28;20167;-54
2023/01/07 02:21:36;;;;;;;5.07;4.57;;;12.40;99.90;;;;;;5053381;28;20221;-54
2023/01/07 02:24:20;;;;;;;6.03;4.60;;;12.40;99.90;;;;;;5052893;28;20246;-51
2023/01/07 02:27:01;;;;;;;6.93;4.70;;;12.40;99.90;;;;;;5053102;28;20179;-51
2023/01/07 02:29:48;;;;;;;5.40;4.57;;;12.40;99.90;;;;;;5052971;28;20202;-54
2023/01/07 02:32:22;;;;;;;5.47;4.97;;;12.40;99.90;;;;;;5053102;28;20171;-55
2023/01/07 02:35:18;;;;;;;5.83;4.87;;;12.30;99.90;;;;;;5052607;28;20179;-51
2023/01/07 02:37:47;;;;;;;5.07;4.57;;;12.30;99.90;;;;;;5053134;28;20172;-51
2023/01/07 02:40:59;;;;;;;5.53;5.03;;;12.30;99.90;;;;;;5052715;28;20183;-56
2023/01/07 02:43:32;;;;;;;5.60;5.10;;;12.20;99.90;;;;;;5011184;28;20189;-51
2023/01/07 02:46:13;;;;;;;5.17;4.67;;;12.20;99.90;;;;;;5010848;28;20176;-52
2023/01/07 02:48:40;;;;;;;5.93;5.20;;;12.20;99.90;;;;;;5010966;28;20176;-51
2023/01/07 02:51:06;;;;;;;5.73;5.13;;;12.20;99.90;;;;;;5011017;28;20263;-51
2023/01/07 02:53:32;;;;;;;5.50;5.00;;;12.20;99.90;;;;;;5010817;28;20291;-51
2023/01/07 02:56:23;;;;;;;5.93;5.10;;;12.20;99.90;;;;;;5010691;28;20176;-52
2023/01/07 02:59:16;;;;;;;6.13;4.97;;;12.10;99.90;;;;;;5010892;28;20195;-53
2023/01/07 03:02:07;;;;;;;5.23;4.73;;;12.20;99.90;;;;;;5010805;28;20176;-51
2023/01/07 03:04:37;;;;;;;5.40;4.90;;;12.10;99.90;;;;;;5010598;28;20191;-52
2023/01/07 03:07:40;;;;;;;5.23;4.73;;;12.10;99.90;;;;;;5010500;28;20184;-55
2023/01/07 03:10:34;;;;;;;4.90;4.50;;;12.10;99.90;;;;;;5008209;28;20204;-52
2023/01/07 03:13:18;;;;;;;7.27;4.40;;;12.20;99.90;;;;;;5010523;28;20577;-51
2023/01/07 03:16:01;;;;;;;5.23;4.73;;;12.20;99.90;;;;;;5010348;28;20641;-53
2023/01/07 03:18:33;;;;;;;5.10;4.63;;;11.70;99.90;;;;;;5012515;28;20175;-52
2023/01/07 03:21:06;;;;;;;8.00;6.27;;;12.20;99.90;;;;;;5059371;28;20181;-51
2023/01/07 03:23:35;;;;;;;8.50;6.87;;;12.20;99.90;;;;;;5071631;28;20174;-54
2023/01/07 03:26:05;;;;;;;7.80;7.00;;;12.10;99.90;;;;;;5072247;28;20297;-54
2023/01/07 03:28:39;;;;;;;9.87;7.67;;;12.00;99.90;;;;;;5072237;28;20619;-51
2023/01/07 03:31:06;;;;;;;8.03;6.13;;;11.90;99.90;;;;;;5071688;28;20185;-51
2023/01/07 03:33:49;;;;;;;6.93;6.23;;;11.90;99.90;;;;;;5071885;28;20198;-55
2023/01/07 03:36:18;;;;;;;5.80;5.20;;;12.00;99.90;;;;;;5072184;28;20228;-53
2023/01/07 03:38:45;;;;;;;5.30;4.80;;;11.90;99.90;;;;;;5071953;28;20178;-50
2023/01/07 03:42:38;;;;;;;6.90;5.93;;;11.80;99.90;;;;;;5072206;28;20163;-51
2023/01/07 03:43:56;;;;;;;6.30;5.70;;;11.70;99.90;;;;;;5071575;28;20177;-51
2023/01/07 03:46:21;;;;;;;6.33;5.73;;;11.50;99.90;;;;;;5072028;28;20178;-52
2023/01/07 03:48:47;;;;;;;5.03;4.53;;;11.40;99.90;;;;;;5071779;28;20209;-51
2023/01/07 03:51:12;;;;;;;5.30;4.50;;;11.40;99.90;;;;;;5072093;28;20765;-51
2023/01/07 03:53:38;;;;;;;4.97;4.57;;;11.40;99.90;;;;;;5071476;28;20686;-56
2023/01/07 03:56:04;;;;;;;5.90;4.90;;;11.50;99.90;;;;;;5071804;28;20634;-56
2023/01/07 03:58:29;;;;;;;5.63;5.07;;;11.70;99.90;;;;;;5071823;28;20177;-52
2023/01/07 04:00:55;;;;;;;6.10;5.50;;;11.70;99.90;;;;;;5071902;28;20190;-51
2023/01/07 04:03:20;;;;;;;9.73;8.57;;;11.70;99.90;;;;;;5071894;28;20181;-54
2023/01/07 04:05:46;;;;;;;7.83;7.03;;;11.70;99.90;;;;;;5071335;28;20202;-51
2023/01/07 04:08:11;;;;;;;6.27;5.67;;;11.80;99.90;;;;;;5071875;28;20175;-51
2023/01/07 04:10:37;;;;;;;6.60;6.00;;;11.70;99.90;;;;;;5071610;28;20206;-51
2023/01/07 04:13:02;;;;;;;6.43;5.83;;;11.80;99.90;;;;;;5071777;28;20565;-51
2023/01/07 04:15:28;;;;;;;8.37;6.90;;;11.80;99.90;;;;;;5071399;28;20183;-51
2023/01/07 04:17:53;;;;;;;6.33;5.73;;;11.80;99.90;;;;;;5071774;28;20189;-54
2023/01/07 04:20:19;;;;;;;5.60;5.10;;;11.70;99.90;;;;;;5071522;28;20262;-53
2023/01/07 04:22:44;;;;;;;7.90;7.10;;;11.70;99.90;;;;;;5071859;28;20221;-53
2023/01/07 04:25:10;;;;;;;7.57;6.87;;;11.60;99.90;;;;;;5071206;28;20175;-51
2023/01/07 04:27:36;;;;;;;5.93;5.43;;;11.60;99.90;;;;;;5071825;28;20256;-53
2023/01/07 04:30:01;;;;;;;6.00;5.50;;;11.50;99.90;;;;;;5071661;28;20275;-51
2023/01/07 04:32:27;;;;;;;6.33;5.67;;;11.60;99.90;;;;;;5071454;28;20224;-53
2023/01/07 04:34:52;;;;;;;6.70;6.10;;;11.50;99.90;;;;;;5071162;28;20238;-52
2023/01/07 04:37:18;;;;;;;9.43;7.47;;;11.60;99.90;;;;;;5071428;28;20174;-51
2023/01/07 04:39:43;;;;;;;6.13;5.53;;;11.60;99.90;;;;;;5071429;28;20281;-55
2023/01/07 04:42:09;;;;;;;9.43;8.23;;;11.60;99.90;;;;;;5072211;28;20217;-54
2023/01/07 04:44:34;;;;;;;6.23;5.63;;;11.70;99.90;;;;;;5075226;28;20194;-51
2023/01/07 04:47:00;;;;;;;5.77;5.27;;;11.70;99.90;;;;;;5075245;28;20174;-53
2023/01/07 04:49:25;;;;;;;7.57;6.77;;;11.80;99.90;;;;;;5075109;28;20293;-53
2023/01/07 04:51:51;;;;;;;8.67;7.20;;;11.90;99.90;;;;;;5075220;28;20182;-52
2023/01/07 04:54:16;;;;;;;7.10;5.87;;;11.90;99.90;;;;;;5074692;28;20251;-51
2023/01/07 04:56:42;;;;;;;6.70;5.97;;;12.00;99.90;;;;;;5075000;28;20187;-54
2023/01/07 04:59:07;;;;;;;7.10;6.40;;;11.80;99.90;;;;;;5073620;28;20198;-52
2023/01/07 05:01:33;;;;;;;6.90;6.10;;;11.60;99.90;;;;;;5075133;28;20183;-52
2023/01/07 05:03:58;;;;;;;5.93;5.43;;;11.60;99.90;;;;;;5076118;28;20213;-51
2023/01/07 05:06:24;;;;;;;5.60;5.10;;;11.60;99.90;;;;;;5075007;28;20743;-52
2023/01/07 05:08:50;;;;;;;5.43;4.93;;;11.70;99.90;;;;;;5074694;28;20200;-51
2023/01/07 05:11:20;;;;;;;5.50;5.00;;;11.60;99.90;;;;;;5075050;28;20643;-51
2023/01/07 05:13:47;;;;;;;5.80;5.30;;;11.60;99.90;;;;;;5074448;28;20195;-51
2023/01/07 05:16:13;;;;;;;6.07;5.47;;;11.60;99.90;;;;;;5074822;28;20673;-52
2023/01/07 05:18:38;;;;;;;6.23;5.53;;;11.60;99.90;;;;;;5073321;28;20178;-53
2023/01/07 05:21:04;;;;;;;5.73;5.07;;;11.70;99.90;;;;;;5074732;28;20170;-51
2023/01/07 05:23:29;;;;;;;6.27;5.43;;;11.70;99.90;;;;;;5074675;28;20189;-55
2023/01/07 05:25:55;;;;;;;6.27;5.30;;;11.70;99.90;;;;;;5074341;28;20178;-52
2023/01/07 05:28:20;;;;;;;8.13;6.10;;;11.80;99.90;;;;;;5074674;28;20261;-52
2023/01/07 05:30:46;;;;;;;6.37;5.77;;;11.80;99.90;;;;;;5074452;28;20206;-52
2023/01/07 05:33:12;;;;;;;6.40;5.80;;;11.90;99.90;;;;;;5074424;28;20254;-52
2023/01/07 05:35:38;;;;;;;6.40;5.80;;;11.90;99.90;;;;;;5074180;28;20179;-52
2023/01/07 05:38:04;;;;;;;6.50;5.90;;;12.00;99.90;;;;;;5074435;28;20166;-54
2023/01/07 05:40:29;;;;;;;6.53;5.93;;;11.80;99.90;;;;;;5074274;28;20187;-55
2023/01/07 05:42:55;;;;;;;6.23;5.63;;;11.80;99.90;;;;;;5074439;28;20208;-52
2023/01/07 05:45:20;;;;;;;6.07;5.27;;;11.80;99.90;;;;;;5073883;28;20178;-51
2023/01/07 05:47:47;;;;;;;5.97;5.47;;;11.70;99.90;;;;;;5074299;28;20185;-51
2023/01/07 05:50:12;;;;;;;6.20;5.60;;;11.60;99.90;;;;;;5073949;28;20283;-51
2023/01/07 05:52:38;;;;;;;5.70;5.20;;;11.70;99.90;;;;;;5074252;28;20182;-53
2023/01/07 05:55:05;;;;;;;6.17;5.53;;;11.70;99.90;;;;;;5073156;28;20253;-53
2023/01/07 05:57:31;;;;;;;7.20;6.50;;;11.70;99.90;;;;;;5074039;28;20166;-52
2023/01/07 05:59:57;;;;;;;6.23;5.63;;;11.70;99.90;;;;;;5074071;28;20201;-54
2023/01/07 06:02:22;;;;;;;6.40;5.80;;;11.70;99.90;;;;;;5073825;28;20223;-51
2023/01/07 06:04:48;;;;;;;5.77;5.27;;;11.80;99.90;;;;;;5073653;28;20316;-54
2023/01/07 06:07:14;;;;;;;5.50;5.00;;;11.80;99.90;;;;;;5073828;28;20232;-52
2023/01/07 06:09:39;;;;;;;5.83;5.23;;;11.90;99.90;;;;;;5073838;28;20281;-54
2023/01/07 06:12:05;;;;;;;6.10;5.60;;;11.80;99.90;;;;;;5073789;28;20261;-52
2023/01/07 06:14:30;;;;;;;5.60;5.10;;;11.80;99.90;;;;;;5073511;28;20206;-52
2023/01/07 06:16:56;;;;;;;6.30;5.70;;;11.90;99.90;;;;;;5073520;28;20178;-54
2023/01/07 06:19:21;;;;;;;5.40;4.90;;;11.90;99.90;;;;;;5073612;28;20182;-53
2023/01/07 06:21:48;;;;;;;6.30;5.70;;;12.00;99.90;;;;;;5073560;28;20643;-54
2023/01/07 06:24:14;;;;;;;5.80;5.30;;;11.90;99.90;;;;;;5073178;28;20177;-52
2023/01/07 06:26:39;;;;;;;6.20;5.60;;;11.90;99.90;;;;;;5073528;28;20171;-55
2023/01/07 06:29:06;;;;;;;6.10;5.60;;;11.90;99.90;;;;;;5073312;28;20198;-52
2023/01/07 06:31:31;;;;;;;5.50;5.00;;;11.90;99.90;;;;;;5073350;28;20170;-51
2023/01/07 06:33:57;;;;;;;5.13;4.73;;;11.90;99.90;;;;;;5072778;28;20202;-52
2023/01/07 06:36:23;;;;;;;4.83;4.43;;;11.80;99.90;;;;;;5073254;28;20186;-52
2023/01/07 06:38:48;;;;;;;5.03;4.53;;;11.80;99.90;;;;;;5073053;28;20181;-54
2023/01/07 06:41:14;;;;;;;4.27;3.87;;;11.80;99.90;;;;;;5073265;28;20175;-52
2023/01/07 06:43:39;;;;;;;6.63;5.00;;;11.80;99.90;;;;;;5072805;28;20181;-52
2023/01/07 06:46:05;;;;;;;5.40;4.90;;;11.80;99.90;;;;;;5073063;28;20181;-53
2023/01/07 06:48:30;;;;;;;4.60;4.20;;;11.80;99.90;;;;;;5073011;28;20535;-51
2023/01/07 06:50:56;;;;;;;5.47;4.97;;;11.80;99.90;;;;;;5071416;28;20214;-51
2023/01/07 06:53:21;;;;;;;4.60;4.20;;;11.90;99.90;;;;;;5072703;28;20195;-53
2023/01/07 06:55:50;;;;;;;5.47;4.97;;;11.90;99.90;;;;;;5072430;28;20193;-52
2023/01/07 06:58:16;;;;;;;5.33;4.83;;;11.90;99.90;;;;;;5072799;28;20182;-54
2023/01/07 07:00:42;;;;;;;6.57;4.77;;;11.90;99.90;;;;;;5072400;28;20187;-51
2023/01/07 07:03:08;;;;;;;9.57;8.67;;;11.90;99.90;;;;;;5072784;28;20240;-51
2023/01/07 07:05:34;;;;;;;6.47;5.90;;;11.80;99.90;;;;;;5070874;28;20268;-49
2023/01/07 07:07:59;;;;;;;4.93;4.43;;;11.90;99.90;;;;;;5072611;28;20182;-51
2023/01/07 07:10:25;;;;;;;5.57;5.07;;;11.90;99.90;;;;;;5071603;28;20281;-51
2023/01/07 07:12:51;;;;;;;5.70;5.20;;;11.80;99.90;;;;;;5072485;28;20288;-51
2023/01/07 07:15:17;;;;;;;5.33;4.57;;;11.80;99.90;;;;;;5072017;28;20202;-50
2023/01/07 07:17:42;;;;;;;4.80;4.40;;;11.80;99.90;;;;;;5071720;28;20209;-53
2023/01/07 07:20:09;;;;;;;5.80;4.60;;;11.80;99.90;;;;;;5068166;28;20199;-50
2023/01/07 07:22:34;;;;;;;5.53;4.63;;;11.80;99.90;;;;;;5072345;28;20626;-53
2023/01/07 07:25:00;;;;;;;5.17;4.67;;;11.90;99.90;;;;;;5071579;28;20175;-51
2023/01/07 07:27:25;;;;;;;5.27;4.77;;;11.80;99.90;;;;;;5067059;28;20170;-54
2023/01/07 07:29:51;;;;;;;5.53;5.03;;;11.90;99.90;;;;;;5071956;28;20644;-50
2023/01/07 07:32:17;;;;;;;5.10;4.60;;;11.80;99.90;;;;;;5072358;28;20181;-54
2023/01/07 07:34:42;;;;;;;5.20;4.70;;;11.80;99.90;;;;;;5071156;28;20209;-54
2023/01/07 07:37:08;;;;;;;5.17;4.67;;;11.80;99.90;;;;;;5072093;28;20708;-54
2023/01/07 07:39:33;;;;;;;6.30;5.00;;;11.80;99.90;;;;;;5071348;28;20636;-54
2023/01/07 07:42:03;;;;;;;6.47;5.47;;;11.80;99.90;;;;;;5071989;28;20209;-52
2023/01/07 07:44:29;;;;;;;5.67;5.13;;;11.80;99.90;;;;;;5070921;28;20709;-51
2023/01/07 07:46:54;;;;;;;7.57;6.30;;;11.90;99.90;;;;;;5071897;28;20178;-54
2023/01/07 07:49:20;;;;;;;5.87;5.20;;;11.80;99.90;;;;;;5071420;28;20252;-52
2023/01/07 07:51:45;;;;;;;5.13;4.63;;;11.80;99.90;;;;;;5070294;28;20228;-51
2023/01/07 07:54:11;;;;;;;4.93;4.40;;;11.90;99.90;;;;;;5071394;28;20286;-55
2023/01/07 07:56:36;;;;;;;5.53;4.83;;;11.90;99.90;;;;;;5070531;28;20194;-51
2023/01/07 07:59:02;;;;;;;7.30;6.53;;;11.90;99.90;;;;;;5071725;28;20193;-50
2023/01/07 08:01:28;;;;;;;6.63;5.20;;;12.00;99.90;;;;;;5071549;28;20171;-52
2023/01/07 08:03:53;;;;;;;5.27;4.77;;;12.00;99.90;;;;;;5071494;28;20539;-50
2023/01/07 08:06:19;;;;;;;5.77;4.67;;;12.10;99.90;;;;;;5071543;28;20170;-51
2023/01/07 08:08:44;;;;;;;4.73;4.33;;;11.90;99.90;;;;;;5071091;28;20584;-50
2023/01/07 08:11:10;;;;;;;5.70;5.03;;;12.10;99.90;;;;;;5071657;28;20182;-52
2023/01/07 08:13:35;;;;;;;6.40;5.30;;;11.90;99.90;;;;;;5070901;28;20202;-52
2023/01/07 08:16:01;;;;;;;6.43;5.10;;;11.90;99.90;;;;;;5070995;28;20174;-52
2023/01/07 08:18:26;;;;;;;5.73;5.00;;;13.10;99.90;;;;;;5076703;28;20166;-50
2023/01/07 08:20:54;;;;;;;5.57;5.07;;;11.90;99.90;;;;;;5071716;28;20615;-51
2023/01/07 08:23:19;;;;;;;5.73;5.13;;;12.10;99.90;;;;;;5057039;28;20167;-51
2023/01/07 08:25:45;;;;;;;4.83;4.43;;;12.00;99.90;;;;;;5057927;28;20281;-48
2023/01/07 08:28:10;;;;;;;5.70;5.10;;;12.00;99.90;;;;;;5058333;28;20251;-49
2023/01/07 08:30:36;;;;;;;5.27;4.77;;;12.10;99.90;;;;;;5058077;28;20187;-49
2023/01/07 08:33:07;;;;;;;5.93;5.33;;;12.30;99.90;;;;;;5058200;28;20237;-54
2023/01/07 08:35:33;;;;;;;5.90;5.30;;;12.20;99.90;;;;;;5057731;28;20559;-50
2023/01/07 08:38:07;;;;;;;5.20;4.80;;;12.30;99.90;;;;;;5058244;28;20186;-50
2023/01/07 08:40:34;;;;;;;5.00;4.60;;;12.30;99.90;;;;;;5058023;28;20197;-52
2023/01/07 08:43:01;;;;;;;6.00;4.97;;;12.40;99.90;;;;;;5058157;28;20167;-52
2023/01/07 08:45:27;;;;;;;6.20;5.17;;;12.50;99.90;;;;;;5057916;28;20266;-52
2023/01/07 08:47:56;;;;;;;4.83;4.43;;;12.50;99.90;;;;;;5058272;28;20182;-51
2023/01/07 08:50:26;;;;;;;5.07;4.57;;;12.60;99.90;;;;;;5057956;28;20207;-52
2023/01/07 08:52:51;;;;;;;5.30;4.50;;;12.90;99.90;;;;;;5058107;28;20590;-51
2023/01/07 08:55:17;;;;;;;4.80;4.30;;;13.10;99.90;;;;;;5057566;28;20198;-54
2023/01/07 08:57:43;;;;;;;4.43;3.80;;;13.50;99.90;;;;;;5058144;28;20323;-51
2023/01/07 09:00:09;;;;;;;4.10;3.73;;;13.90;99.90;;;;;;5058029;28;20597;-50
2023/01/07 09:02:35;;;;;;;4.43;4.03;;;14.50;99.90;;;;;;5061987;28;20177;-51
2023/01/07 09:05:00;;;;;;;3.63;3.37;;;15.50;99.90;;;;;;5077597;28;20665;-53
2023/01/07 09:07:26;;;;;;;3.20;2.90;;;17.00;99.90;;;;;;5077702;28;20177;-55
2023/01/07 09:09:51;;;;;;;3.42;3.13;;;18.90;99.90;;;;;;5077530;28;20207;-53
2023/01/07 09:12:17;;;;;;;3.30;3.05;;;20.90;99.90;;;;;;5077753;28;20174;-53
2023/01/07 09:14:42;;;;;;;2.92;2.65;;;22.80;98.40;;;;;;5077581;28;20206;-54
2023/01/07 09:17:08;;;;;;;2.60;2.40;;;24.30;96.30;;;;;;5077844;28;20173;-56
2023/01/07 09:19:34;;;;;;;2.75;2.40;;;26.10;93.30;;;;;;5067919;28;20294;-52
2023/01/07 09:21:59;;;;;;;2.50;2.30;;;27.50;86.90;;;;;;5077048;28;20182;-48
2023/01/07 09:24:25;;;;;;;2.78;2.58;;;28.50;84.10;;;;;;5071310;28;20178;-53
2023/01/07 09:26:50;;;;;;;2.15;2.03;;;29.50;77.70;;;;;;5057612;28;20529;-51
2023/01/07 09:29:16;;;;;;;2.63;2.10;;;30.20;74.60;;;;;;5053524;28;20206;-46
2023/01/07 09:31:41;;;;;;;2.22;2.03;;;30.70;70.10;;;;;;5064509;28;20183;-47
2023/01/07 09:34:07;;;;;;;2.10;2.00;;;31.30;68.50;;;;;;5068621;28;20221;-51
2023/01/07 09:36:32;;;;;;;3.85;2.75;;;32.10;65.50;;;;;;5075248;28;20176;-50
2023/01/07 09:38:58;;;;;;;2.05;1.95;;;32.80;61.80;;;;;;5080365;28;20273;-50
2023/01/07 09:41:39;;;;;;;1.80;1.70;;;33.30;58.80;;;;;;5076281;28;20181;-53
2023/01/07 09:44:24;;;;;;;2.20;2.05;;;33.70;57.20;;;;;;5085502;28;20189;-49
2023/01/07 09:46:52;;;;;;;2.08;1.98;;;34.10;53.40;;;;;;5087741;28;20239;-53
2023/01/07 09:49:18;;;;;;;1.88;1.77;;;33.80;53.10;;;;;;5075319;28;20244;-50
2023/01/07 09:51:53;;;;;;;1.88;1.77;;;33.70;53.30;;;;;;5081648;28;20170;-51
2023/01/07 09:54:35;;;;;;;2.05;1.95;;;33.70;51.00;;;;;;5063385;28;20205;-50
2023/01/07 09:57:01;;;;;;;4.35;3.95;;;33.30;50.90;;;;;;5063633;28;20639;-49
2023/01/07 09:59:27;;;;;;;2.10;2.00;;;33.40;49.80;;;;;;5065028;28;20555;-46
2023/01/07 10:02:12;;;;;;;1.00;1.00;;;33.50;49.90;;;;;;5052241;28;20235;-49
2023/01/07 10:04:51;;;;;;;1.50;1.40;;;34.10;50.00;;;;;;5036922;28;20179;-51
2023/01/07 10:07:33;;;;;;;1.30;1.30;;;34.90;46.70;;;;;;5039812;28;20187;-53
2023/01/07 10:10:22;;;;;;;1.42;1.42;;;34.20;44.10;;;;;;5012359;28;20711;-53
2023/01/07 10:12:48;;;;;;;1.10;1.10;;;32.60;46.90;;;;;;5031345;28;20179;-50
2023/01/07 10:15:25;;;;;;;1.55;1.40;;;32.70;48.00;;;;;;5030577;28;20195;-48
2023/01/07 10:18:11;;;;;;;1.27;1.17;;;33.50;46.50;;;;;;5032095;28;20175;-51
2023/01/07 10:20:45;;;;;;;1.75;1.10;;;34.40;45.70;;;;;;5030919;28;20565;-52
2023/01/07 10:23:32;;;;;;;1.73;1.63;;;34.80;44.90;;;;;;5041102;28;20218;-51
2023/01/07 10:26:01;;;;;;;1.05;1.05;;;34.60;44.10;;;;;;5046309;28;20297;-52
2023/01/07 10:28:42;;;;;;;1.98;1.88;;;34.10;43.00;;;;;;5030057;28;20188;-52
2023/01/07 10:31:15;;;;;;;1.50;1.40;;;32.80;43.70;;;;;;5029698;28;20775;-51
2023/01/07 10:33:44;;;;;;;1.50;1.40;;;31.20;45.90;;;;;;5019855;28;20248;-56
2023/01/07 10:36:24;;;;;;;1.20;1.10;;;30.70;46.30;;;;;;5041261;28;20186;-56
2023/01/07 10:39:09;;;;;;;1.35;1.33;;;30.20;46.90;;;;;;5035976;28;20191;-54
2023/01/07 10:41:57;;;;;;;1.38;1.35;;;31.00;46.10;;;;;;4991752;28;20201;-52
2023/01/07 10:44:28;;;;;;;1.20;1.20;;;31.80;46.00;;;;;;4991197;28;20196;-51
2023/01/07 10:47:12;;;;;;;2.35;1.50;;;32.70;45.60;;;;;;4994329;28;20185;-54
2023/01/07 10:49:53;;;;;;;1.50;1.40;;;32.80;43.90;;;;;;5010097;28;20239;-51
2023/01/07 10:52:27;;;;;;;1.60;1.50;;;32.40;45.20;;;;;;5009736;28;20207;-54
2023/01/07 10:55:11;;;;;;;1.45;1.38;;;32.90;45.00;;;;;;5026613;28;20242;-53
2023/01/07 10:57:37;;;;;;;1.30;1.30;;;33.50;43.90;;;;;;5019285;28;20177;-52
2023/01/07 11:00:06;;;;;;;1.60;1.50;;;33.80;43.00;;;;;;5003309;28;20719;-53
2023/01/07 11:02:32;;;;;;;1.58;1.48;;;33.80;42.40;;;;;;5008201;28;20819;-47
2023/01/07 11:04:58;;;;;;;1.20;1.20;;;33.30;42.80;;;;;;5012289;28;20192;-55
2023/01/07 11:07:30;;;;;;;1.42;1.33;;;32.90;43.70;;;;;;5022142;28;20199;-51
2023/01/07 11:09:58;;;;;;;1.45;1.27;;;33.20;44.00;;;;;;5006828;28;21077;-51
2023/01/07 11:12:36;;;;;;;1.20;1.20;;;33.40;43.50;;;;;;4994368;28;20251;-51
2023/01/07 11:15:06;;;;;;;1.52;1.30;;;34.00;42.20;;;;;;5015508;28;20261;-54
2023/01/07 11:17:43;;;;;;;1.88;1.08;;;34.40;42.10;;;;;;5010351;28;20218;-52
2023/01/07 11:20:09;;;;;;;1.65;1.55;;;34.80;42.10;;;;;;5065770;28;20233;-53
2023/01/07 11:22:38;;;;;;;1.20;1.10;;;34.30;41.20;;;;;;5070755;28;20697;-54
2023/01/07 11:25:27;;;;;;;1.40;1.30;;;34.20;41.50;;;;;;5071359;28;20662;-51
2023/01/07 11:27:54;;;;;;;1.27;1.25;;;34.20;41.00;;;;;;5059351;28;20531;-51
2023/01/07 11:30:26;;;;;;;1.25;1.15;;;34.10;40.50;;;;;;5066376;28;20275;-51
2023/01/07 11:32:58;;;;;;;1.50;1.40;;;33.70;40.80;;;;;;5092162;28;20169;-51
2023/01/07 11:35:27;;;;;;;1.10;1.10;;;33.50;41.30;;;;;;5074434;28;20227;-54
2023/01/07 11:37:52;;;;;;;1.50;1.40;;;33.50;41.50;;;;;;5071962;28;20192;-52
2023/01/07 11:40:23;;;;;;;1.20;1.20;;;33.30;41.80;;;;;;5072050;28;20197;-54
2023/01/07 11:43:08;;;;;;;1.17;1.17;;;33.60;41.70;;;;;;5070733;28;20643;-53
2023/01/07 11:45:46;;;;;;;1.25;1.25;;;33.60;41.50;;;;;;5049101;28;20178;-54
2023/01/07 11:48:33;;;;;;;1.30;1.30;;;33.40;41.60;;;;;;5049626;28;20182;-54
2023/01/07 11:51:00;;;;;;;1.05;1.05;;;33.70;40.90;;;;;;5049603;28;20615;-54
2023/01/07 11:53:55;;;;;;;1.30;1.20;;;33.70;41.70;;;;;;5048996;28;20663;-51
2023/01/07 11:56:32;;;;;;;1.10;1.10;;;34.20;41.30;;;;;;5049417;28;20182;-54
2023/01/07 11:59:22;;;;;;;1.00;1.00;;;34.70;40.80;;;;;;5049436;28;20196;-51
2023/01/07 12:01:52;;;;;;;1.20;1.20;;;34.60;40.40;;;;;;5046462;28;20178;-53
2023/01/07 12:04:20;;;;;;;0.95;0.95;;;34.70;39.40;;;;;;5049042;28;20182;-54
2023/01/07 12:06:47;;;;;;;1.13;1.13;;;34.30;40.30;;;;;;5049436;28;20170;-53
2023/01/07 12:09:21;;;;;;;1.20;1.20;;;34.20;40.40;;;;;;5049119;28;20571;-50
2023/01/07 12:11:47;;;;;;;1.48;1.48;;;33.90;39.70;;;;;;5049594;28;20763;-50
2023/01/07 12:14:15;;;;;;;1.45;1.35;;;32.80;40.30;;;;;;5048928;28;20207;-50
2023/01/07 12:16:45;;;;;;;1.35;1.25;;;31.80;42.10;;;;;;5049262;28;20176;-52
2023/01/07 12:19:16;;;;;;;1.58;1.48;;;31.10;43.00;;;;;;5049328;28;20187;-54
2023/01/07 12:21:57;;;;;;;1.20;1.20;;;31.20;43.20;;;;;;5051378;28;20276;-50
2023/01/07 12:24:43;;;;;;;1.42;1.35;;;31.40;42.70;;;;;;5071332;28;20179;-55
2023/01/07 12:27:32;;;;;;;1.30;1.30;;;31.20;42.90;;;;;;5071704;28;20336;-53
2023/01/07 12:30:23;;;;;;;1.50;1.40;;;30.80;43.60;;;;;;5071377;28;20186;-53
2023/01/07 12:33:18;;;;;;;1.40;1.30;;;30.40;43.60;;;;;;5071567;28;20535;-52
2023/01/07 12:35:44;;;;;;;1.52;1.42;;;29.50;44.60;;;;;;5062756;28;20179;-57
2023/01/07 12:38:32;;;;;;;1.73;1.63;;;29.00;45.20;;;;;;5071387;28;20548;-55
2023/01/07 12:41:04;;;;;;;1.80;1.70;;;29.00;45.60;;;;;;5071343;28;20210;-52
2023/01/07 12:43:30;;;;;;;1.50;1.40;;;28.90;45.30;;;;;;5071431;28;20147;-55
2023/01/07 12:45:59;;;;;;;1.33;1.33;;;28.70;45.40;;;;;;5071459;28;20265;-52
2023/01/07 12:48:44;;;;;;;1.60;1.50;;;28.20;46.20;;;;;;5071406;28;20205;-52
2023/01/07 12:51:25;;;;;;;1.75;1.65;;;27.60;46.70;;;;;;5071267;28;20159;-53
2023/01/07 12:54:04;;;;;;;1.90;1.80;;;27.20;47.80;;;;;;5071135;28;20198;-54
2023/01/07 12:56:57;;;;;;;1.73;1.63;;;27.10;47.70;;;;;;5071212;28;20194;-52
2023/01/07 12:59:40;;;;;;;1.75;1.65;;;27.00;48.10;;;;;;5070158;28;20294;-52
2023/01/07 13:02:38;;;;;;;2.65;1.75;;;27.00;47.80;;;;;;5071295;28;20171;-54
2023/01/07 13:05:29;;;;;;;1.88;1.77;;;27.30;48.50;;;;;;5073176;28;20167;-54